Delta Virtual Airport Information Service

Toronto Pearson International Airport

ICAO: CYYZ Country: Canada
Latitude: 43.6772 Longitude: -79.6305
Latest Arrival : UAE241 (OMDB-CYYZ) Latest Departure : ACA872 (CYYZ-EDDF)


WX CaptureLIVE
Data provided by noaa.gov | Fetched at 04:28:25

METAR : CYYZ 300900Z 25006KT 15SM SCT080 BKN140 12/10 A2956 RMK AC3AC3 SLP010 DENSITY ALT 800FT

TAF : CYYZ 300838Z 3009/0112 21007KT P6SM SCT070 OVC140 FM301000 22007KT P6SM FEW050 SCT150 FM301500 23018G28KT P6SM SCT025 BKN050 FM301800 23018G28KT P6SM -SHRA BKN030 FM010000 23012KT P6SM -SHRA BKN020 FM010400 23010KT P6SM BKN015 BECMG 0109/0111 26012KT RMK NXT FCST BY 301200Z


Runway Data for CYYZ
Data provided by openaviationdata.com

Runway ID Mag Var Hdg Length Elevation Surface ILS Freq ILS Id ILS Slope
5 -10 56° 11089 ft 569 ft Asphalt 109.7 ITX 3
06L -10 56° 9728 ft 569 ft Concrete 109.1 IJS 3
06R -10 56° 8995 ft 569 ft Asphalt 111.95 ICV 3
15L -10 146° 11134 ft 569 ft Asphalt 110.5 IRW 3
15R -10 147° 9088 ft 569 ft Asphalt 110.95 ILP 3
23 -10 236° 11089 ft 569 ft Asphalt 111.5 IYZ 3
24L -10 236° 8995 ft 569 ft Asphalt 111.95 IDP 3
24R -10 236° 9728 ft 569 ft Concrete 109.3 INV 3
33L -10 327° 9088 ft 569 ft Asphalt 110.95 ITO 3
33R -10 326° 11134 ft 569 ft Asphalt 110.3 ILE 3

Toronto Pearson International Airport, Canada
Use only for reference purposes



Not for navigational purposes.